RYR6RR EGSS-LEAM
Flight info
| Callsign | RYR6RR |
|---|---|
| Flight time | 2h 23m |
| Altitude | 36000 |
| Route | NUGBO M183 SILVA Q41 SAM N63 LELNA DCT NOVAN DCT NENEM P152 PPN N10 CJN L27 BLN N865 ESILA |
| Aircraft | B738/M-SDE2E3FGHIRWXY/LB1 |
Departure
| Time | 2026-04-15 05:44 |
|---|---|
| Airport | London Stansted Airport (EGSS) |
Arrival
| Time | 2026-04-15 08:07 |
|---|---|
| Airport | Almería Airport (LEAM) |
| Time | Latitude | Longitude | Altitude | Speed | Heading |
|---|---|---|---|---|---|
| 2026-04-15 05:44 | 52.10913 | 0.08970 | 12073 ft | 305 kts | 344° |
| 2026-04-15 05:44 | 52.12860 | 0.07455 | 12238 ft | 320 kts | 317° |
| 2026-04-15 05:44 | 52.14300 | 0.04610 | 12423 ft | 336 kts | 295° |
| 2026-04-15 05:44 | 52.14992 | 0.00909 | 12582 ft | 352 kts | 274° |
| 2026-04-15 05:45 | 52.14784 | -0.03099 | 12962 ft | 360 kts | 251° |
| 2026-04-15 05:45 | 52.13646 | -0.06695 | 13720 ft | 358 kts | 232° |
| 2026-04-15 05:45 | 52.12021 | -0.09571 | 14400 ft | 360 kts | 223° |
| 2026-04-15 05:45 | 52.10132 | -0.12294 | 14994 ft | 365 kts | 220° |
| 2026-04-15 05:46 | 52.08076 | -0.14741 | 15574 ft | 369 kts | 213° |
| 2026-04-15 05:46 | 52.05899 | -0.16990 | 16181 ft | 372 kts | 213° |
| 2026-04-15 05:46 | 52.03737 | -0.19342 | 16764 ft | 375 kts | 215° |
| 2026-04-15 05:46 | 52.01537 | -0.21652 | 17317 ft | 379 kts | 212° |
| 2026-04-15 05:47 | 51.99265 | -0.23883 | 17872 ft | 383 kts | 212° |
| 2026-04-15 05:47 | 51.96957 | -0.26106 | 18438 ft | 388 kts | 212° |
| 2026-04-15 05:47 | 51.94621 | -0.28332 | 18953 ft | 391 kts | 212° |
| 2026-04-15 05:47 | 51.92270 | -0.30584 | 19454 ft | 394 kts | 212° |
| 2026-04-15 05:48 | 51.89901 | -0.32865 | 19939 ft | 398 kts | 212° |
| 2026-04-15 05:48 | 51.87548 | -0.35140 | 20415 ft | 401 kts | 212° |
| 2026-04-15 05:48 | 51.85148 | -0.37465 | 20889 ft | 404 kts | 212° |
| 2026-04-15 05:48 | 51.82731 | -0.39807 | 21331 ft | 407 kts | 212° |
| 2026-04-15 05:49 | 51.80292 | -0.42172 | 21757 ft | 410 kts | 212° |
| 2026-04-15 05:49 | 51.77836 | -0.44554 | 22164 ft | 413 kts | 212° |
| 2026-04-15 05:49 | 51.75363 | -0.46948 | 22577 ft | 416 kts | 212° |
| 2026-04-15 05:49 | 51.72875 | -0.49351 | 22976 ft | 419 kts | 212° |
| 2026-04-15 05:50 | 51.70369 | -0.51768 | 23360 ft | 421 kts | 212° |
| 2026-04-15 05:50 | 51.67849 | -0.54196 | 23739 ft | 424 kts | 212° |
| 2026-04-15 05:50 | 51.62750 | -0.59097 | 24444 ft | 429 kts | 212° |
| 2026-04-15 05:51 | 51.60180 | -0.61563 | 24828 ft | 430 kts | 212° |
| 2026-04-15 05:51 | 51.57608 | -0.64028 | 25194 ft | 432 kts | 212° |
| 2026-04-15 05:51 | 51.55015 | -0.66509 | 25557 ft | 434 kts | 213° |
| 2026-04-15 05:51 | 51.52417 | -0.68993 | 25894 ft | 435 kts | 213° |
| 2026-04-15 05:52 | 51.49808 | -0.71484 | 26226 ft | 437 kts | 213° |
| 2026-04-15 05:52 | 51.47186 | -0.73984 | 26533 ft | 439 kts | 213° |
| 2026-04-15 05:52 | 51.44555 | -0.76489 | 26861 ft | 440 kts | 213° |
| 2026-04-15 05:52 | 51.41919 | -0.78994 | 27159 ft | 442 kts | 213° |
| 2026-04-15 05:53 | 51.39270 | -0.81508 | 27440 ft | 444 kts | 213° |
| 2026-04-15 05:53 | 51.36614 | -0.84026 | 27715 ft | 445 kts | 213° |
| 2026-04-15 05:53 | 51.33943 | -0.86555 | 27990 ft | 446 kts | 213° |
| 2026-04-15 05:53 | 51.31263 | -0.89090 | 28246 ft | 448 kts | 213° |
| 2026-04-15 05:54 | 51.28581 | -0.91623 | 28594 ft | 447 kts | 213° |
| 2026-04-15 05:54 | 51.25909 | -0.94141 | 29033 ft | 444 kts | 213° |
| 2026-04-15 05:54 | 51.23255 | -0.96640 | 29471 ft | 442 kts | 213° |
| 2026-04-15 05:54 | 51.20611 | -0.99126 | 29870 ft | 440 kts | 213° |
| 2026-04-15 05:55 | 51.17980 | -1.01598 | 30202 ft | 440 kts | 213° |
| 2026-04-15 05:55 | 51.15348 | -1.04067 | 30538 ft | 439 kts | 213° |
| 2026-04-15 05:55 | 51.12714 | -1.06534 | 30857 ft | 438 kts | 213° |
| 2026-04-15 05:55 | 51.10094 | -1.08985 | 31175 ft | 438 kts | 213° |
| 2026-04-15 05:56 | 51.07468 | -1.11439 | 31493 ft | 437 kts | 213° |
| 2026-04-15 05:56 | 51.04847 | -1.13883 | 31785 ft | 437 kts | 213° |
| 2026-04-15 05:56 | 51.02226 | -1.16325 | 32088 ft | 436 kts | 213° |
| 2026-04-15 05:56 | 50.99616 | -1.18753 | 32393 ft | 435 kts | 213° |
| 2026-04-15 05:57 | 50.97005 | -1.21180 | 32697 ft | 434 kts | 213° |
| 2026-04-15 05:57 | 50.94981 | -1.23059 | 32921 ft | 434 kts | 213° |
| 2026-04-15 05:57 | 50.92447 | -1.25408 | 33176 ft | 434 kts | 213° |
| 2026-04-15 05:57 | 50.89843 | -1.27819 | 33383 ft | 434 kts | 213° |
| 2026-04-15 05:58 | 50.87263 | -1.30205 | 33628 ft | 434 kts | 213° |
| 2026-04-15 05:58 | 50.84659 | -1.32610 | 33901 ft | 433 kts | 213° |
| 2026-04-15 05:58 | 50.82027 | -1.35038 | 34176 ft | 432 kts | 213° |
| 2026-04-15 05:58 | 50.79424 | -1.37434 | 34419 ft | 432 kts | 213° |
| 2026-04-15 05:59 | 50.76861 | -1.39792 | 34635 ft | 432 kts | 213° |
| 2026-04-15 05:59 | 50.75112 | -1.41398 | 34773 ft | 432 kts | 213° |
| 2026-04-15 05:59 | 50.71672 | -1.44555 | 35130 ft | 430 kts | 213° |
| 2026-04-15 05:59 | 50.69089 | -1.46921 | 35390 ft | 429 kts | 213° |
| 2026-04-15 06:00 | 50.66510 | -1.49282 | 35606 ft | 428 kts | 213° |
| 2026-04-15 06:00 | 50.63938 | -1.51632 | 35825 ft | 428 kts | 213° |
| 2026-04-15 06:00 | 50.61358 | -1.53988 | 35959 ft | 429 kts | 214° |
| 2026-04-15 06:00 | 50.58777 | -1.56342 | 36120 ft | 429 kts | 213° |
| 2026-04-15 06:01 | 50.56193 | -1.58694 | 36335 ft | 429 kts | 214° |
| 2026-04-15 06:01 | 50.53610 | -1.61043 | 36528 ft | 428 kts | 214° |
| 2026-04-15 06:01 | 50.51870 | -1.62623 | 36664 ft | 428 kts | 214° |
| 2026-04-15 06:01 | 50.49297 | -1.64956 | 36887 ft | 426 kts | 214° |
| 2026-04-15 06:02 | 50.46766 | -1.67248 | 37069 ft | 426 kts | 214° |
| 2026-04-15 06:02 | 50.41605 | -1.71915 | 37046 ft | 424 kts | 214° |
| 2026-04-15 06:03 | 50.36571 | -1.76454 | 37050 ft | 417 kts | 214° |
| 2026-04-15 06:03 | 50.31551 | -1.80972 | 37054 ft | 415 kts | 214° |
| 2026-04-15 06:04 | 50.26543 | -1.85469 | 37054 ft | 414 kts | 214° |
| 2026-04-15 06:04 | 50.21542 | -1.89949 | 37057 ft | 416 kts | 213° |
| 2026-04-15 06:05 | 50.16476 | -1.94476 | 37069 ft | 422 kts | 213° |
| 2026-04-15 06:05 | 50.11338 | -1.99054 | 37066 ft | 428 kts | 213° |
| 2026-04-15 06:06 | 50.06144 | -2.03667 | 37054 ft | 431 kts | 213° |
| 2026-04-15 06:06 | 50.00922 | -2.08296 | 37056 ft | 433 kts | 213° |
| 2026-04-15 06:07 | 49.95420 | -2.12172 | 37063 ft | 439 kts | 201° |
| 2026-04-15 06:07 | 49.89548 | -2.14878 | 37065 ft | 440 kts | 200° |
| 2026-04-15 06:08 | 49.83680 | -2.17540 | 37063 ft | 439 kts | 201° |
| 2026-04-15 06:08 | 49.77820 | -2.20232 | 37063 ft | 439 kts | 201° |
| 2026-04-15 06:09 | 49.71978 | -2.22935 | 37066 ft | 438 kts | 201° |
| 2026-04-15 06:09 | 49.66156 | -2.25632 | 37069 ft | 437 kts | 201° |
| 2026-04-15 06:10 | 49.60376 | -2.28303 | 37074 ft | 436 kts | 201° |
| 2026-04-15 06:10 | 49.54569 | -2.30980 | 37075 ft | 435 kts | 201° |
| 2026-04-15 06:11 | 49.48731 | -2.33662 | 37075 ft | 435 kts | 201° |
| 2026-04-15 06:11 | 49.42970 | -2.36303 | 37073 ft | 435 kts | 201° |
| 2026-04-15 06:12 | 49.37171 | -2.38955 | 37073 ft | 435 kts | 201° |
| 2026-04-15 06:12 | 49.31404 | -2.41585 | 37069 ft | 425 kts | 200° |
| 2026-04-15 06:13 | 49.25860 | -2.44101 | 37057 ft | 411 kts | 200° |
| 2026-04-15 06:13 | 49.20390 | -2.46588 | 37067 ft | 409 kts | 200° |
| 2026-04-15 06:14 | 49.14934 | -2.49064 | 37070 ft | 409 kts | 200° |
| 2026-04-15 06:14 | 49.09468 | -2.51537 | 37078 ft | 410 kts | 200° |
| 2026-04-15 06:15 | 49.03986 | -2.54011 | 37078 ft | 412 kts | 200° |
| 2026-04-15 06:15 | 48.98479 | -2.56489 | 37077 ft | 413 kts | 200° |
| 2026-04-15 06:16 | 48.92959 | -2.58966 | 37084 ft | 415 kts | 200° |
| 2026-04-15 06:16 | 48.87411 | -2.61450 | 37081 ft | 416 kts | 200° |
| 2026-04-15 06:17 | 48.81853 | -2.63934 | 37092 ft | 417 kts | 200° |
| 2026-04-15 06:17 | 48.76326 | -2.66397 | 37095 ft | 417 kts | 200° |
| 2026-04-15 06:18 | 48.70748 | -2.68876 | 37099 ft | 418 kts | 200° |
| 2026-04-15 06:18 | 48.65159 | -2.71357 | 37107 ft | 419 kts | 200° |
| 2026-04-15 06:19 | 48.59565 | -2.73834 | 37096 ft | 419 kts | 200° |
| 2026-04-15 06:19 | 48.53969 | -2.76304 | 37099 ft | 419 kts | 200° |
| 2026-04-15 06:20 | 48.48377 | -2.78769 | 37097 ft | 419 kts | 200° |
| 2026-04-15 06:20 | 48.42781 | -2.81230 | 37105 ft | 419 kts | 200° |
| 2026-04-15 06:21 | 48.37181 | -2.83685 | 37102 ft | 419 kts | 200° |
| 2026-04-15 06:21 | 48.31578 | -2.86136 | 37101 ft | 419 kts | 200° |
| 2026-04-15 06:22 | 48.25974 | -2.88583 | 37098 ft | 419 kts | 200° |
| 2026-04-15 06:22 | 48.20382 | -2.91020 | 37116 ft | 418 kts | 200° |
| 2026-04-15 06:23 | 48.14801 | -2.93446 | 37109 ft | 418 kts | 200° |
| 2026-04-15 06:23 | 48.09222 | -2.95864 | 37106 ft | 417 kts | 200° |
| 2026-04-15 06:24 | 48.03650 | -2.98275 | 37116 ft | 416 kts | 200° |
| 2026-04-15 06:24 | 47.98084 | -3.00678 | 37123 ft | 416 kts | 200° |
| 2026-04-15 06:25 | 47.92521 | -3.03075 | 37124 ft | 417 kts | 201° |
| 2026-04-15 06:25 | 47.86940 | -3.05475 | 37130 ft | 418 kts | 201° |
| 2026-04-15 06:26 | 47.81348 | -3.07871 | 37136 ft | 418 kts | 200° |
| 2026-04-15 06:26 | 47.75753 | -3.10264 | 37131 ft | 418 kts | 200° |
| 2026-04-15 06:27 | 47.70129 | -3.12523 | 37115 ft | 422 kts | 194° |
| 2026-04-15 06:27 | 47.64235 | -3.12656 | 37121 ft | 435 kts | 177° |
| 2026-04-15 06:28 | 47.58207 | -3.11149 | 37131 ft | 437 kts | 176° |
| 2026-04-15 06:28 | 47.52258 | -3.09630 | 37127 ft | 437 kts | 176° |
| 2026-04-15 06:29 | 47.46231 | -3.08127 | 37134 ft | 437 kts | 176° |
| 2026-04-15 06:29 | 47.40271 | -3.06665 | 37139 ft | 437 kts | 176° |
| 2026-04-15 06:30 | 47.34265 | -3.05202 | 37138 ft | 438 kts | 176° |
| 2026-04-15 06:30 | 47.28249 | -3.03740 | 37136 ft | 438 kts | 176° |
| 2026-04-15 06:31 | 47.22230 | -3.02281 | 37141 ft | 439 kts | 176° |
| 2026-04-15 06:31 | 47.16199 | -3.00823 | 37135 ft | 439 kts | 176° |
| 2026-04-15 06:32 | 47.10166 | -2.99366 | 37140 ft | 440 kts | 176° |
| 2026-04-15 06:32 | 47.04111 | -2.97907 | 37139 ft | 441 kts | 176° |
| 2026-04-15 06:33 | 46.98056 | -2.96452 | 37137 ft | 442 kts | 176° |
| 2026-04-15 06:33 | 46.91977 | -2.94995 | 37146 ft | 442 kts | 176° |
| 2026-04-15 06:34 | 46.85909 | -2.93543 | 37149 ft | 443 kts | 176° |
| 2026-04-15 06:34 | 46.79811 | -2.92090 | 37151 ft | 444 kts | 176° |
| 2026-04-15 06:35 | 46.73719 | -2.90638 | 37158 ft | 444 kts | 176° |
| 2026-04-15 06:35 | 46.67611 | -2.89188 | 37159 ft | 445 kts | 176° |
| 2026-04-15 06:36 | 46.61489 | -2.87737 | 37155 ft | 446 kts | 176° |
| 2026-04-15 06:36 | 46.55362 | -2.86288 | 37159 ft | 446 kts | 176° |
| 2026-04-15 06:37 | 46.49262 | -2.84847 | 37160 ft | 447 kts | 176° |
| 2026-04-15 06:37 | 46.43118 | -2.83401 | 37157 ft | 448 kts | 176° |
| 2026-04-15 06:38 | 46.36966 | -2.81956 | 37168 ft | 448 kts | 176° |
| 2026-04-15 06:38 | 46.30802 | -2.80512 | 37164 ft | 449 kts | 176° |
| 2026-04-15 06:39 | 46.24624 | -2.79067 | 37165 ft | 450 kts | 176° |
| 2026-04-15 06:39 | 46.18443 | -2.77626 | 37165 ft | 451 kts | 176° |
| 2026-04-15 06:40 | 46.12258 | -2.76186 | 37169 ft | 451 kts | 176° |
| 2026-04-15 06:40 | 46.06056 | -2.74746 | 37171 ft | 451 kts | 176° |
| 2026-04-15 06:41 | 45.99877 | -2.73343 | 37170 ft | 450 kts | 179° |
| 2026-04-15 06:41 | 45.93655 | -2.72890 | 37171 ft | 448 kts | 184° |
| 2026-04-15 06:42 | 45.87420 | -2.72674 | 37183 ft | 449 kts | 184° |
| 2026-04-15 06:42 | 45.81156 | -2.72420 | 37187 ft | 451 kts | 183° |
| 2026-04-15 06:43 | 45.74867 | -2.72113 | 37189 ft | 452 kts | 183° |
| 2026-04-15 06:43 | 45.68577 | -2.71788 | 37205 ft | 453 kts | 183° |
| 2026-04-15 06:44 | 45.62270 | -2.71456 | 37201 ft | 453 kts | 183° |
| 2026-04-15 06:44 | 45.55972 | -2.71127 | 37205 ft | 453 kts | 183° |
| 2026-04-15 06:45 | 45.49705 | -2.70803 | 37210 ft | 453 kts | 183° |
| 2026-04-15 06:45 | 45.43397 | -2.70476 | 37216 ft | 454 kts | 183° |
| 2026-04-15 06:46 | 45.37092 | -2.70152 | 37210 ft | 454 kts | 183° |
| 2026-04-15 06:46 | 45.30776 | -2.69828 | 37213 ft | 454 kts | 183° |
| 2026-04-15 06:47 | 45.24469 | -2.69505 | 37210 ft | 454 kts | 183° |
| 2026-04-15 06:47 | 45.18157 | -2.69183 | 37214 ft | 454 kts | 183° |
| 2026-04-15 06:48 | 45.11838 | -2.68861 | 37214 ft | 454 kts | 183° |
| 2026-04-15 06:48 | 45.05507 | -2.68539 | 37211 ft | 455 kts | 183° |
| 2026-04-15 06:49 | 44.99176 | -2.68217 | 37217 ft | 455 kts | 183° |
| 2026-04-15 06:49 | 44.93912 | -2.67950 | 37223 ft | 456 kts | 183° |
| 2026-04-15 06:50 | 44.84389 | -2.67468 | 37222 ft | 457 kts | 183° |
| 2026-04-15 06:50 | 44.78027 | -2.67147 | 37226 ft | 457 kts | 183° |
| 2026-04-15 06:51 | 44.71668 | -2.66829 | 37233 ft | 458 kts | 183° |
| 2026-04-15 06:51 | 44.65281 | -2.66509 | 37231 ft | 460 kts | 183° |
| 2026-04-15 06:52 | 44.58883 | -2.66188 | 37226 ft | 460 kts | 183° |
| 2026-04-15 06:52 | 44.52475 | -2.65868 | 37232 ft | 461 kts | 183° |
| 2026-04-15 06:53 | 44.46059 | -2.65549 | 37230 ft | 462 kts | 183° |
| 2026-04-15 06:53 | 44.39629 | -2.65228 | 37232 ft | 463 kts | 183° |
| 2026-04-15 06:54 | 44.33193 | -2.64908 | 37231 ft | 464 kts | 182° |
| 2026-04-15 06:54 | 44.26738 | -2.64589 | 37234 ft | 464 kts | 182° |
| 2026-04-15 06:55 | 44.20273 | -2.64269 | 37233 ft | 465 kts | 182° |
| 2026-04-15 06:55 | 44.13801 | -2.63950 | 37230 ft | 466 kts | 182° |
| 2026-04-15 06:56 | 44.07314 | -2.63631 | 37227 ft | 467 kts | 182° |
| 2026-04-15 06:56 | 44.00819 | -2.63312 | 37222 ft | 467 kts | 182° |
| 2026-04-15 06:57 | 43.94314 | -2.62993 | 37211 ft | 468 kts | 182° |
| 2026-04-15 06:57 | 43.87800 | -2.62676 | 37226 ft | 469 kts | 182° |
| 2026-04-15 06:58 | 43.81264 | -2.62358 | 37223 ft | 470 kts | 182° |
| 2026-04-15 06:58 | 43.74775 | -2.62043 | 37223 ft | 470 kts | 182° |
| 2026-04-15 06:59 | 43.68235 | -2.61726 | 37221 ft | 471 kts | 182° |
| 2026-04-15 06:59 | 43.61682 | -2.61405 | 37222 ft | 471 kts | 182° |
| 2026-04-15 07:00 | 43.55134 | -2.61087 | 37220 ft | 471 kts | 182° |
| 2026-04-15 07:00 | 43.48590 | -2.60772 | 37218 ft | 471 kts | 182° |
| 2026-04-15 07:01 | 43.42035 | -2.60457 | 37221 ft | 471 kts | 182° |
| 2026-04-15 07:01 | 43.35432 | -2.60141 | 37222 ft | 471 kts | 182° |
| 2026-04-15 07:02 | 43.28926 | -2.59829 | 37221 ft | 472 kts | 182° |
| 2026-04-15 07:02 | 43.22365 | -2.59514 | 37228 ft | 471 kts | 182° |
| 2026-04-15 07:03 | 43.15804 | -2.59201 | 37224 ft | 472 kts | 182° |
| 2026-04-15 07:03 | 43.09244 | -2.58889 | 37221 ft | 472 kts | 182° |
| 2026-04-15 07:04 | 43.02682 | -2.58575 | 37226 ft | 472 kts | 182° |
| 2026-04-15 07:04 | 42.96113 | -2.58264 | 37229 ft | 472 kts | 182° |
| 2026-04-15 07:05 | 42.89545 | -2.57955 | 37241 ft | 473 kts | 182° |
| 2026-04-15 07:05 | 42.82959 | -2.57645 | 37244 ft | 474 kts | 182° |
| 2026-04-15 07:06 | 42.76368 | -2.57335 | 37234 ft | 475 kts | 182° |
| 2026-04-15 07:06 | 42.69749 | -2.57024 | 37241 ft | 476 kts | 182° |
| 2026-04-15 07:07 | 42.63131 | -2.56712 | 37236 ft | 477 kts | 182° |
| 2026-04-15 07:07 | 42.56492 | -2.56399 | 37234 ft | 477 kts | 182° |
| 2026-04-15 07:08 | 42.49857 | -2.56090 | 37239 ft | 478 kts | 182° |
| 2026-04-15 07:08 | 42.43197 | -2.55780 | 37241 ft | 479 kts | 182° |
| 2026-04-15 07:09 | 42.36543 | -2.55470 | 37244 ft | 479 kts | 182° |
| 2026-04-15 07:09 | 42.29867 | -2.55160 | 37245 ft | 480 kts | 182° |
| 2026-04-15 07:10 | 42.23181 | -2.54850 | 37239 ft | 481 kts | 182° |
| 2026-04-15 07:10 | 42.16489 | -2.54540 | 37235 ft | 481 kts | 182° |
| 2026-04-15 07:11 | 42.09788 | -2.54230 | 37236 ft | 482 kts | 182° |
| 2026-04-15 07:11 | 42.03086 | -2.53918 | 37235 ft | 482 kts | 182° |
| 2026-04-15 07:12 | 41.96374 | -2.53611 | 37234 ft | 483 kts | 181° |
| 2026-04-15 07:12 | 41.89659 | -2.53305 | 37232 ft | 483 kts | 181° |
| 2026-04-15 07:13 | 41.82927 | -2.52996 | 37232 ft | 484 kts | 181° |
| 2026-04-15 07:13 | 41.76189 | -2.52688 | 37233 ft | 485 kts | 181° |
| 2026-04-15 07:14 | 41.69454 | -2.52379 | 37229 ft | 485 kts | 181° |
| 2026-04-15 07:14 | 41.62707 | -2.52068 | 37235 ft | 485 kts | 181° |
| 2026-04-15 07:15 | 41.56009 | -2.51764 | 37228 ft | 485 kts | 181° |
| 2026-04-15 07:15 | 41.49386 | -2.52637 | 37231 ft | 475 kts | 199° |
| 2026-04-15 07:16 | 41.43320 | -2.55854 | 37244 ft | 466 kts | 212° |
| 2026-04-15 07:16 | 41.37515 | -2.59738 | 37224 ft | 467 kts | 211° |
| 2026-04-15 07:17 | 41.31283 | -2.62387 | 37237 ft | 477 kts | 192° |
| 2026-04-15 07:17 | 41.24608 | -2.62504 | 37248 ft | 483 kts | 179° |
| 2026-04-15 07:18 | 41.17895 | -2.61767 | 37231 ft | 484 kts | 179° |
| 2026-04-15 07:18 | 41.11179 | -2.61086 | 37223 ft | 484 kts | 179° |
| 2026-04-15 07:19 | 41.04456 | -2.60481 | 37229 ft | 484 kts | 180° |
| 2026-04-15 07:19 | 40.97729 | -2.59883 | 37231 ft | 485 kts | 179° |
| 2026-04-15 07:20 | 40.90986 | -2.59284 | 37226 ft | 486 kts | 179° |
| 2026-04-15 07:20 | 40.84249 | -2.58685 | 37242 ft | 486 kts | 179° |
| 2026-04-15 07:21 | 40.77487 | -2.58080 | 37231 ft | 487 kts | 179° |
| 2026-04-15 07:21 | 40.70726 | -2.57479 | 37242 ft | 487 kts | 179° |
| 2026-04-15 07:22 | 40.63962 | -2.56878 | 37247 ft | 488 kts | 179° |
| 2026-04-15 07:22 | 40.57227 | -2.56279 | 37248 ft | 488 kts | 179° |
| 2026-04-15 07:23 | 40.50447 | -2.55676 | 37243 ft | 489 kts | 179° |
| 2026-04-15 07:23 | 40.43655 | -2.55074 | 37252 ft | 489 kts | 179° |
| 2026-04-15 07:24 | 40.36896 | -2.55222 | 37255 ft | 483 kts | 193° |
| 2026-04-15 07:24 | 40.30532 | -2.57677 | 37277 ft | 475 kts | 206° |
| 2026-04-15 07:25 | 40.24376 | -2.60877 | 37270 ft | 476 kts | 206° |
| 2026-04-15 07:25 | 40.18208 | -2.64040 | 37267 ft | 477 kts | 206° |
| 2026-04-15 07:26 | 40.12012 | -2.67153 | 37264 ft | 477 kts | 206° |
| 2026-04-15 07:26 | 40.05812 | -2.70243 | 37270 ft | 477 kts | 205° |
| 2026-04-15 07:27 | 39.99616 | -2.73325 | 37271 ft | 476 kts | 205° |
| 2026-04-15 07:27 | 39.93414 | -2.76408 | 37268 ft | 477 kts | 205° |
| 2026-04-15 07:28 | 39.87213 | -2.79485 | 37268 ft | 477 kts | 205° |
| 2026-04-15 07:28 | 39.81002 | -2.82561 | 37270 ft | 478 kts | 205° |
| 2026-04-15 07:29 | 39.74793 | -2.85629 | 37270 ft | 478 kts | 205° |
| 2026-04-15 07:29 | 39.68584 | -2.88689 | 37264 ft | 477 kts | 205° |
| 2026-04-15 07:30 | 39.62371 | -2.91747 | 37266 ft | 477 kts | 205° |
| 2026-04-15 07:30 | 39.56166 | -2.94801 | 37264 ft | 477 kts | 205° |
| 2026-04-15 07:31 | 39.49970 | -2.97856 | 37267 ft | 476 kts | 205° |
| 2026-04-15 07:31 | 39.43782 | -3.00898 | 37268 ft | 475 kts | 205° |
| 2026-04-15 07:32 | 39.37601 | -3.03929 | 37265 ft | 475 kts | 205° |
| 2026-04-15 07:32 | 39.31410 | -3.06939 | 37268 ft | 475 kts | 205° |
| 2026-04-15 07:33 | 39.25226 | -3.09935 | 37268 ft | 475 kts | 205° |
| 2026-04-15 07:33 | 39.19039 | -3.12928 | 37266 ft | 475 kts | 205° |
| 2026-04-15 07:34 | 39.13901 | -3.15410 | 37268 ft | 474 kts | 205° |
| 2026-04-15 07:34 | 39.07719 | -3.18390 | 37268 ft | 474 kts | 205° |
| 2026-04-15 07:35 | 39.01535 | -3.21366 | 37268 ft | 475 kts | 205° |
| 2026-04-15 07:35 | 38.95354 | -3.24345 | 37267 ft | 475 kts | 205° |
| 2026-04-15 07:36 | 38.89165 | -3.27332 | 37262 ft | 475 kts | 205° |
| 2026-04-15 07:36 | 38.82983 | -3.30309 | 37261 ft | 475 kts | 205° |
| 2026-04-15 07:37 | 38.76792 | -3.33281 | 37257 ft | 475 kts | 205° |
| 2026-04-15 07:37 | 38.70612 | -3.36243 | 37257 ft | 475 kts | 205° |
| 2026-04-15 07:38 | 38.64469 | -3.39182 | 37257 ft | 474 kts | 205° |
| 2026-04-15 07:38 | 38.58279 | -3.42137 | 37256 ft | 475 kts | 205° |
| 2026-04-15 07:39 | 38.52052 | -3.45104 | 37253 ft | 474 kts | 205° |
| 2026-04-15 07:39 | 38.45908 | -3.48026 | 37246 ft | 474 kts | 205° |
| 2026-04-15 07:40 | 38.39726 | -3.50962 | 37245 ft | 474 kts | 205° |
| 2026-04-15 07:40 | 38.33551 | -3.53888 | 37265 ft | 473 kts | 205° |
| 2026-04-15 07:41 | 38.27374 | -3.56808 | 37256 ft | 473 kts | 205° |
| 2026-04-15 07:41 | 38.21195 | -3.59725 | 37263 ft | 473 kts | 205° |
| 2026-04-15 07:42 | 38.14901 | -3.62255 | 37249 ft | 479 kts | 194° |
| 2026-04-15 07:42 | 38.11590 | -3.62703 | 37245 ft | 477 kts | 182° |
| 2026-04-15 07:42 | 38.08331 | -3.62266 | 37275 ft | 471 kts | 170° |
| 2026-04-15 07:43 | 38.02186 | -3.59209 | 37249 ft | 483 kts | 148° |
| 2026-04-15 07:43 | 37.99350 | -3.56842 | 36761 ft | 495 kts | 147° |
| 2026-04-15 07:43 | 37.96507 | -3.54365 | 36283 ft | 494 kts | 146° |
| 2026-04-15 07:44 | 37.93680 | -3.51873 | 35462 ft | 496 kts | 146° |
| 2026-04-15 07:44 | 37.90842 | -3.49386 | 34787 ft | 497 kts | 146° |
| 2026-04-15 07:44 | 37.87987 | -3.46910 | 34053 ft | 498 kts | 146° |
| 2026-04-15 07:44 | 37.85110 | -3.44441 | 33312 ft | 500 kts | 147° |
| 2026-04-15 07:45 | 37.82224 | -3.41984 | 32537 ft | 503 kts | 147° |
| 2026-04-15 07:45 | 37.79308 | -3.39513 | 31735 ft | 505 kts | 147° |
| 2026-04-15 07:45 | 37.76381 | -3.37039 | 30899 ft | 507 kts | 146° |
| 2026-04-15 07:45 | 37.73445 | -3.34558 | 30230 ft | 506 kts | 146° |
| 2026-04-15 07:46 | 37.70571 | -3.32131 | 29655 ft | 502 kts | 146° |
| 2026-04-15 07:46 | 37.67681 | -3.29692 | 29033 ft | 498 kts | 146° |
| 2026-04-15 07:46 | 37.64810 | -3.27271 | 28445 ft | 494 kts | 146° |
| 2026-04-15 07:46 | 37.61968 | -3.24877 | 27845 ft | 490 kts | 146° |
| 2026-04-15 07:47 | 37.59135 | -3.22492 | 27244 ft | 486 kts | 146° |
| 2026-04-15 07:47 | 37.56335 | -3.20137 | 26657 ft | 482 kts | 145° |
| 2026-04-15 07:47 | 37.53555 | -3.17801 | 26056 ft | 479 kts | 145° |
| 2026-04-15 07:47 | 37.50790 | -3.15479 | 25471 ft | 475 kts | 145° |
| 2026-04-15 07:48 | 37.48057 | -3.13186 | 24883 ft | 471 kts | 145° |
| 2026-04-15 07:48 | 37.45338 | -3.10908 | 24294 ft | 467 kts | 145° |
| 2026-04-15 07:48 | 37.42649 | -3.08654 | 23720 ft | 464 kts | 145° |
| 2026-04-15 07:48 | 37.39974 | -3.06415 | 23141 ft | 460 kts | 145° |
| 2026-04-15 07:49 | 37.37319 | -3.04196 | 22564 ft | 456 kts | 145° |
| 2026-04-15 07:49 | 37.34685 | -3.01996 | 21997 ft | 453 kts | 145° |
| 2026-04-15 07:49 | 37.32074 | -2.99817 | 21407 ft | 449 kts | 145° |
| 2026-04-15 07:49 | 37.29483 | -2.97657 | 20839 ft | 445 kts | 145° |
| 2026-04-15 07:50 | 37.26913 | -2.95515 | 20277 ft | 441 kts | 145° |
| 2026-04-15 07:50 | 37.24359 | -2.93388 | 19710 ft | 438 kts | 145° |
| 2026-04-15 07:50 | 37.21834 | -2.91287 | 19119 ft | 435 kts | 145° |
| 2026-04-15 07:50 | 37.19318 | -2.89195 | 18543 ft | 431 kts | 145° |
| 2026-04-15 07:51 | 37.16824 | -2.87124 | 17989 ft | 428 kts | 145° |
| 2026-04-15 07:51 | 37.14360 | -2.85076 | 17449 ft | 424 kts | 145° |
| 2026-04-15 07:51 | 37.11942 | -2.83069 | 16904 ft | 421 kts | 145° |
| 2026-04-15 07:51 | 37.09513 | -2.81056 | 16389 ft | 417 kts | 144° |
| 2026-04-15 07:52 | 37.07372 | -2.78659 | 15812 ft | 411 kts | 125° |
| 2026-04-15 07:52 | 37.05999 | -2.75591 | 15379 ft | 398 kts | 109° |
| 2026-04-15 07:52 | 37.05106 | -2.72372 | 15073 ft | 387 kts | 102° |
| 2026-04-15 07:52 | 37.04629 | -2.69081 | 14576 ft | 386 kts | 94° |
| 2026-04-15 07:53 | 37.04315 | -2.65627 | 14021 ft | 411 kts | 93° |
| 2026-04-15 07:53 | 37.04003 | -2.62058 | 13411 ft | 412 kts | 93° |
| 2026-04-15 07:53 | 37.03688 | -2.58499 | 12811 ft | 410 kts | 93° |
| 2026-04-15 07:53 | 37.03367 | -2.54968 | 12208 ft | 406 kts | 94° |
| 2026-04-15 07:54 | 37.03043 | -2.51477 | 11610 ft | 402 kts | 94° |
| 2026-04-15 07:54 | 37.02716 | -2.48016 | 11007 ft | 399 kts | 94° |
| 2026-04-15 07:54 | 37.02389 | -2.44588 | 10408 ft | 396 kts | 94° |
| 2026-04-15 07:54 | 37.02063 | -2.41179 | 9805 ft | 393 kts | 95° |
| 2026-04-15 07:55 | 37.01736 | -2.37803 | 9217 ft | 390 kts | 95° |
| 2026-04-15 07:55 | 37.01411 | -2.34446 | 8617 ft | 387 kts | 95° |
| 2026-04-15 07:55 | 37.00774 | -2.27834 | 7409 ft | 378 kts | 95° |
| 2026-04-15 07:56 | 37.00457 | -2.24584 | 6809 ft | 374 kts | 95° |
| 2026-04-15 07:56 | 37.00145 | -2.21379 | 6210 ft | 369 kts | 95° |
| 2026-04-15 07:56 | 36.99835 | -2.18206 | 5617 ft | 366 kts | 96° |
| 2026-04-15 07:56 | 36.99529 | -2.15056 | 5010 ft | 363 kts | 96° |
| 2026-04-15 07:57 | 36.99224 | -2.11944 | 4438 ft | 358 kts | 96° |
| 2026-04-15 07:57 | 36.98839 | -2.08877 | 3799 ft | 357 kts | 105° |
| 2026-04-15 07:57 | 36.97636 | -2.06196 | 3185 ft | 356 kts | 134° |
| 2026-04-15 07:57 | 36.95584 | -2.04575 | 2847 ft | 348 kts | 163° |
| 2026-04-15 07:58 | 36.93244 | -2.03865 | 2758 ft | 346 kts | 167° |
| 2026-04-15 07:58 | 36.90919 | -2.03123 | 2683 ft | 343 kts | 174° |
| 2026-04-15 07:58 | 36.88604 | -2.03478 | 2690 ft | 336 kts | 204° |
| 2026-04-15 07:58 | 36.86737 | -2.05176 | 2703 ft | 334 kts | 232° |
| 2026-04-15 07:59 | 36.85773 | -2.07767 | 2696 ft | 333 kts | 260° |
| 2026-04-15 07:59 | 36.85929 | -2.10614 | 2703 ft | 331 kts | 285° |
| 2026-04-15 07:59 | 36.86602 | -2.13360 | 2687 ft | 330 kts | 284° |
| 2026-04-15 07:59 | 36.86992 | -2.16186 | 2674 ft | 331 kts | 274° |
| 2026-04-15 08:00 | 36.86961 | -2.19036 | 2676 ft | 323 kts | 264° |
| 2026-04-15 08:00 | 36.86863 | -2.21722 | 2673 ft | 295 kts | 271° |
| 2026-04-15 08:00 | 36.86881 | -2.24216 | 2225 ft | 286 kts | 266° |
| 2026-04-15 08:00 | 36.86685 | -2.26657 | 1710 ft | 282 kts | 260° |
| 2026-04-15 08:01 | 36.86287 | -2.28963 | 1670 ft | 261 kts | 256° |
| 2026-04-15 08:01 | 36.86104 | -2.31037 | 1956 ft | 229 kts | 281° |
| 2026-04-15 08:01 | 36.86859 | -2.32668 | 1995 ft | 217 kts | 323° |
| 2026-04-15 08:01 | 36.88265 | -2.33246 | 1986 ft | 217 kts | 5° |
| 2026-04-15 08:02 | 36.89609 | -2.32517 | 2002 ft | 215 kts | 43° |
| 2026-04-15 08:02 | 36.90484 | -2.31021 | 1998 ft | 214 kts | 62° |
| 2026-04-15 08:02 | 36.91186 | -2.29416 | 1987 ft | 215 kts | 62° |
| 2026-04-15 08:02 | 36.91888 | -2.27807 | 1986 ft | 206 kts | 62° |
| 2026-04-15 08:03 | 36.92557 | -2.26269 | 1976 ft | 198 kts | 62° |
| 2026-04-15 08:03 | 36.93008 | -2.24681 | 1965 ft | 194 kts | 92° |
| 2026-04-15 08:03 | 36.92498 | -2.23246 | 1981 ft | 179 kts | 142° |
| 2026-04-15 08:03 | 36.91372 | -2.22716 | 2014 ft | 176 kts | 171° |
| 2026-04-15 08:04 | 36.90151 | -2.22712 | 1982 ft | 176 kts | 195° |
| 2026-04-15 08:04 | 36.89104 | -2.23347 | 1996 ft | 161 kts | 217° |
| 2026-04-15 08:04 | 36.88339 | -2.24257 | 1941 ft | 149 kts | 230° |
| 2026-04-15 08:04 | 36.87662 | -2.25215 | 1780 ft | 146 kts | 229° |
| 2026-04-15 08:05 | 36.87157 | -2.26295 | 1609 ft | 144 kts | 248° |
| 2026-04-15 08:05 | 36.86772 | -2.27448 | 1418 ft | 144 kts | 250° |
| 2026-04-15 08:05 | 36.86452 | -2.28628 | 1227 ft | 143 kts | 253° |
| 2026-04-15 08:05 | 36.86162 | -2.29799 | 1036 ft | 140 kts | 254° |
| 2026-04-15 08:06 | 36.85878 | -2.30960 | 857 ft | 140 kts | 254° |
| 2026-04-15 08:06 | 36.85592 | -2.32124 | 671 ft | 140 kts | 254° |
| 2026-04-15 08:06 | 36.85307 | -2.33282 | 487 ft | 139 kts | 254° |
| 2026-04-15 08:06 | 36.85023 | -2.34441 | 302 ft | 139 kts | 254° |
| 2026-04-15 08:07 | 36.84741 | -2.35592 | 118 ft | 139 kts | 254° |
| 2026-04-15 08:07 | 36.84479 | -2.36677 | 52 ft | 112 kts | 253° |
| 2026-04-15 08:07 | 36.84308 | -2.37370 | 53 ft | 64 kts | 253° |
| 2026-04-15 08:07 | 36.84216 | -2.37747 | 46 ft | 44 kts | 253° |
| 2026-04-15 08:08 | 36.84211 | -2.38100 | 40 ft | 34 kts | 289° |
| 2026-04-15 08:08 | 36.84277 | -2.38191 | 40 ft | 6 kts | 19° |
| 2026-04-15 08:08 | 36.84301 | -2.38128 | 41 ft | 13 kts | 66° |
| 2026-04-15 08:08 | 36.84331 | -2.38011 | 43 ft | 15 kts | 73° |
| 2026-04-15 08:09 | 36.84408 | -2.37914 | 45 ft | 18 kts | 334° |
| 2026-04-15 08:09 | 36.84499 | -2.37896 | 44 ft | 10 kts | 70° |
| 2026-04-15 08:09 | 36.84503 | -2.37810 | 46 ft | 10 kts | 119° |
| 2026-04-15 08:09 | 36.84461 | -2.37809 | 46 ft | 5 kts | 205° |
| 2026-04-15 08:10 | 36.84456 | -2.37812 | 46 ft | 0 kts | 205° |